Pagina principale
METAR-TAF:

METAR-TAF

Aeroporti :

Sun City, Sudafrica

latitudine: 25-20-01S, longitudine: 027-10-24E, altezza: 1040 m

Osservazione

Il bollettino è stato emesso 1 ora e 2 minuti fa, alle 16:00 UTC
Vento 3 kt da nord
Temperature 16°C
Umidità 34%
Pressione 1028 hPa

METAR: FAPN 181600Z AUTO 35003KT //// // ////// 16/M00 Q1028

Ora: 19:02 (17:02 UTC)


TAF: mancante

Osservazioni e previsioni meteorologiche di più di 4000 aeroporti (messaggi METAR e TAF).

Le stazioni disponibili sono rappresentate dai dischi gialli e rossi sulla carta.

Puntare il mouse per vedere il nome della stazione.

Clicca sopra per visualizzare le osservazioni e previsioni meteorologiche.

Per cambiare la mappa : fare clic sui pulsanti verdi con una croce nera per ingrandire, il pulsante verde con un trattino per diminuire, o sulla freccia verde per le mappe adiacenti.


METAR-TAF: